Time;durP1;ratioP1;P1;durP2;ratioP2;P2;SDS_P1;SDS_P2;PMS_P1;PMS_P2;Temp;Humidity;BMP_temperature;BMP_pressure;BME280_temperature;BME280_humidity;BME280_pressure;Samples;Min_cycle;Max_cycle;Signal;HPM_P1;HPM_P2
2021/12/27 00:00:22;;;;;;;21.23;10.77;;;-5.80;99.90;-6.30;99938.00;;;;5048655;27;88840;-65
2021/12/27 00:02:57;;;;;;;15.57;8.57;;;-5.60;99.90;-6.20;99939.00;;;;5048205;27;97363;-66
2021/12/27 00:05:22;;;;;;;18.30;9.70;;;-5.70;99.90;-6.20;99937.00;;;;5057139;27;104723;-66
2021/12/27 00:07:50;;;;;;;14.07;8.87;;;-5.70;99.90;-6.30;99938.00;;;;5058554;27;103596;-66
2021/12/27 00:10:18;;;;;;;23.30;11.00;;;-5.70;99.90;-6.20;99937.00;;;;5060070;27;87910;-67
2021/12/27 00:12:44;;;;;;;13.43;9.03;;;-5.70;99.90;-6.30;99928.00;;;;5058283;27;87769;-67
2021/12/27 00:15:10;;;;;;;15.87;10.03;;;-5.70;99.90;-6.30;99938.00;;;;5059324;27;87829;-65
2021/12/27 00:17:36;;;;;;;20.67;10.07;;;-5.80;99.90;-6.30;99931.00;;;;5058413;27;95411;-65
2021/12/27 00:20:07;;;;;;;16.67;8.93;;;-5.70;99.90;-6.30;99935.00;;;;5058460;27;88060;-66
2021/12/27 00:22:33;;;;;;;20.47;10.40;;;-5.70;99.90;-6.20;99935.00;;;;5059921;27;87819;-65
2021/12/27 00:24:58;;;;;;;21.07;9.97;;;-5.70;99.90;-6.30;99937.00;;;;5038043;27;111369;-65
2021/12/27 00:27:25;;;;;;;16.17;8.93;;;-5.60;99.90;-6.20;99944.00;;;;5057747;27;116637;-66
2021/12/27 00:29:52;;;;;;;17.93;8.43;;;-5.70;99.90;-6.20;99930.00;;;;5058687;27;87608;-65
2021/12/27 00:32:18;;;;;;;13.60;8.87;;;-5.60;99.90;-6.20;99915.00;;;;5059043;27;87724;-66
2021/12/27 00:34:45;;;;;;;16.07;8.47;;;-5.60;99.90;-6.10;99922.00;;;;5059292;27;93854;-66
2021/12/27 00:37:10;;;;;;;16.90;10.33;;;-5.60;99.90;-6.10;99911.00;;;;5059110;27;95391;-67
2021/12/27 00:39:36;;;;;;;21.20;10.33;;;-5.50;99.90;-6.00;99913.00;;;;5056003;27;110227;-67
2021/12/27 00:42:03;;;;;;;19.40;11.00;;;-5.50;99.90;-6.00;99908.00;;;;5038411;27;87250;-65
2021/12/27 00:44:29;;;;;;;18.00;9.53;;;-5.40;99.90;-6.00;99906.00;;;;5037670;27;96288;-66
2021/12/27 00:46:55;;;;;;;16.70;9.07;;;-5.50;99.90;-6.00;99909.00;;;;5038437;27;95948;-67
2021/12/27 00:49:21;;;;;;;18.20;9.17;;;-5.20;99.90;-6.00;99912.00;;;;5037238;27;109387;-66
2021/12/27 00:51:47;;;;;;;15.03;9.37;;;-5.50;99.90;-5.90;99914.00;;;;5039064;27;108295;-67
2021/12/27 00:54:14;;;;;;;16.37;8.90;;;-5.40;99.90;-5.90;99914.00;;;;5036250;27;88364;-66
2021/12/27 00:56:40;;;;;;;9.70;7.80;;;-5.80;99.90;-5.90;99909.00;;;;5039963;27;91216;-66
2021/12/27 00:59:06;;;;;;;13.63;9.27;;;-5.40;99.90;-5.80;99901.00;;;;5038600;27;88363;-66
2021/12/27 01:01:32;;;;;;;16.00;8.77;;;-5.30;99.90;-5.90;99890.00;;;;5038904;27;110083;-67
2021/12/27 01:03:59;;;;;;;16.60;9.10;;;-5.30;99.90;-5.80;99899.00;;;;5037480;27;101217;-67
2021/12/27 01:06:26;;;;;;;17.53;9.10;;;-5.40;99.90;-5.80;99890.00;;;;5039905;27;88728;-66
2021/12/27 01:08:52;;;;;;;13.83;7.80;;;-5.30;99.90;-5.70;99901.00;;;;5038948;27;88030;-67
2021/12/27 01:11:36;;;;;;;21.60;10.13;;;-5.30;99.90;-5.70;99878.00;;;;5038135;27;87689;-67
2021/12/27 01:14:09;;;;;;;17.90;9.40;;;-5.20;99.90;-5.60;99894.00;;;;5017161;27;91319;-66
2021/12/27 01:16:35;;;;;;;11.97;9.23;;;-5.20;99.90;-5.60;99891.00;;;;5038832;27;88549;-65
2021/12/27 01:19:00;;;;;;;12.63;8.27;;;-5.10;99.90;-5.50;99885.00;;;;5037917;27;94583;-67
2021/12/27 01:21:27;;;;;;;17.80;9.87;;;-5.00;99.90;-5.50;99877.00;;;;5036024;27;89643;-67
2021/12/27 01:23:55;;;;;;;18.40;9.53;;;-4.80;99.90;-5.40;99880.00;;;;5039165;27;87886;-66
2021/12/27 01:26:25;;;;;;;15.37;8.70;;;-4.90;99.90;-5.40;99879.00;;;;5049725;27;88906;-66
2021/12/27 01:28:51;;;;;;;21.23;8.57;;;-4.90;99.90;-5.30;99878.00;;;;5036227;27;87769;-65
2021/12/27 01:31:17;;;;;;;17.73;9.57;;;-4.90;99.90;-5.30;99882.00;;;;5038257;27;87343;-67
2021/12/27 01:33:45;;;;;;;11.13;8.53;;;-4.80;99.90;-5.30;99887.00;;;;5037734;27;87490;-65
2021/12/27 01:36:10;;;;;;;13.97;7.70;;;-4.70;99.90;-5.20;99879.00;;;;5037588;27;88883;-65
2021/12/27 01:38:37;;;;;;;12.80;7.90;;;-4.80;99.90;-5.10;99879.00;;;;5037396;27;88854;-65
2021/12/27 01:41:05;;;;;;;16.77;9.00;;;-4.60;99.90;-5.10;99884.00;;;;5037534;27;88045;-66
2021/12/27 01:43:35;;;;;;;14.87;7.43;;;-4.60;99.90;-5.00;99879.00;;;;5038556;27;89248;-66
2021/12/27 01:46:10;;;;;;;13.87;8.43;;;-4.40;99.90;-5.00;99877.00;;;;5038055;27;87932;-66
2021/12/27 01:48:40;;;;;;;15.53;8.87;;;-4.40;99.90;-4.90;99879.00;;;;5047416;27;87924;-67
2021/12/27 01:51:13;;;;;;;16.67;9.90;;;-4.40;99.90;-4.90;99868.00;;;;5055827;27;87674;-67
2021/12/27 01:53:41;;;;;;;10.10;7.53;;;-4.30;99.90;-4.90;99887.00;;;;5037465;27;88390;-66
2021/12/27 01:56:09;;;;;;;16.30;9.80;;;-4.30;99.90;-4.80;99882.00;;;;5037587;27;94446;-67
2021/12/27 01:58:36;;;;;;;20.60;9.93;;;-4.40;99.90;-4.80;99880.00;;;;5037753;27;87870;-67
2021/12/27 02:01:05;;;;;;;14.80;8.50;;;-4.30;99.90;-4.70;99884.00;;;;5050599;27;93408;-67
2021/12/27 02:03:32;;;;;;;17.47;7.70;;;-4.20;99.90;-4.70;99881.00;;;;5050081;27;104365;-66
2021/12/27 02:06:00;;;;;;;13.47;8.47;;;-4.10;99.90;-4.70;99878.00;;;;5037159;27;89873;-67
2021/12/27 02:08:28;;;;;;;17.60;8.73;;;-4.20;99.90;-4.60;99877.00;;;;5037432;27;87743;-66
2021/12/27 02:10:53;;;;;;;17.00;8.47;;;-4.20;99.90;-4.60;99868.00;;;;5020004;27;87604;-66
2021/12/27 02:13:20;;;;;;;20.63;9.23;;;-4.20;99.90;-4.60;99867.00;;;;5037184;27;88262;-67
2021/12/27 02:15:46;;;;;;;22.07;9.23;;;-4.10;99.90;-4.50;99865.00;;;;5040128;27;117638;-66
2021/12/27 02:18:12;;;;;;;15.77;8.90;;;-4.00;99.90;-4.50;99879.00;;;;5055787;27;88218;-66
2021/12/27 02:20:40;;;;;;;16.63;9.07;;;-4.10;99.90;-4.40;99870.00;;;;5057751;27;87061;-66
2021/12/27 02:23:15;;;;;;;12.83;8.47;;;-4.00;99.90;-4.40;99853.00;;;;5057061;27;88493;-66
2021/12/27 02:25:43;;;;;;;15.60;8.27;;;-3.90;99.90;-4.40;99864.00;;;;5057828;27;88146;-67
2021/12/27 02:28:10;;;;;;;15.40;8.77;;;-3.80;99.90;-4.40;99853.00;;;;5056933;27;88745;-66
2021/12/27 02:30:38;;;;;;;17.53;9.43;;;-3.90;99.90;-4.40;99856.00;;;;5057523;27;87997;-67
2021/12/27 02:33:06;;;;;;;18.73;9.60;;;-3.90;99.90;-4.30;99867.00;;;;5056813;27;88646;-67
2021/12/27 02:35:47;;;;;;;12.30;7.57;;;-3.80;99.90;-4.30;99865.00;;;;5055234;27;101009;-66
2021/12/27 02:38:24;;;;;;;16.63;9.00;;;-3.70;99.90;-4.20;99865.00;;;;5057607;27;88348;-67
2021/12/27 02:40:51;;;;;;;12.30;7.83;;;-3.70;99.90;-4.10;99862.00;;;;5045396;27;88069;-67
2021/12/27 02:43:23;;;;;;;18.17;8.53;;;-3.70;99.90;-4.10;99867.00;;;;5036645;27;88184;-66
2021/12/27 02:46:02;;;;;;;10.50;7.57;;;-3.70;99.90;-4.00;99864.00;;;;5039877;27;88659;-67
2021/12/27 02:48:34;;;;;;;12.93;7.93;;;-3.50;99.90;-4.00;99844.00;;;;5038589;27;87809;-66
2021/12/27 02:51:00;;;;;;;13.07;7.83;;;-3.60;99.90;-4.00;99846.00;;;;5051212;27;87666;-66
2021/12/27 02:53:28;;;;;;;18.50;9.33;;;-3.60;99.90;-4.00;99849.00;;;;5035176;27;107267;-66
2021/12/27 02:55:56;;;;;;;16.73;8.40;;;-3.50;99.90;-3.90;99844.00;;;;5037498;27;89763;-66
2021/12/27 02:58:23;;;;;;;15.63;9.13;;;-3.50;99.90;-3.90;99834.00;;;;5037004;27;87686;-66
2021/12/27 03:01:05;;;;;;;19.13;8.67;;;-3.50;99.90;-3.80;99828.00;;;;5036063;27;94653;-67
2021/12/27 03:03:31;;;;;;;16.30;7.83;;;-3.50;99.90;-3.80;99829.00;;;;5036063;27;88743;-67
2021/12/27 03:05:57;;;;;;;15.77;8.83;;;-3.40;99.90;-3.80;99833.00;;;;5039805;27;88099;-67
2021/12/27 03:08:26;;;;;;;11.97;8.33;;;-3.40;99.90;-3.80;99826.00;;;;5036502;27;94221;-66
2021/12/27 03:10:57;;;;;;;18.53;7.57;;;-3.30;99.90;-3.80;99822.00;;;;5036918;27;87012;-67
2021/12/27 03:13:28;;;;;;;13.07;9.53;;;-3.20;99.90;-3.70;99820.00;;;;5033389;27;88249;-66
2021/12/27 03:15:57;;;;;;;16.77;8.80;;;-2.60;99.90;-3.70;99806.00;;;;5055960;27;107497;-66
2021/12/27 03:18:23;;;;;;;19.97;9.93;;;-3.30;99.90;-3.70;99817.00;;;;5056964;27;88720;-66
2021/12/27 03:20:51;;;;;;;15.80;8.50;;;-3.20;99.90;-3.70;99812.00;;;;5055985;27;87629;-66
2021/12/27 03:23:17;;;;;;;16.53;9.23;;;-3.30;99.90;-3.70;99810.00;;;;5056035;27;88179;-66
2021/12/27 03:25:43;;;;;;;18.00;7.77;;;-3.30;99.90;-3.70;99824.00;;;;5044623;27;104641;-66
2021/12/27 03:28:09;;;;;;;21.07;9.20;;;-2.10;99.90;-3.60;99805.00;;;;5040060;27;87841;-66
2021/12/27 03:30:35;;;;;;;14.97;8.00;;;-2.90;99.90;-3.60;99803.00;;;;5043024;27;96794;-67
2021/12/27 03:33:03;;;;;;;17.80;9.50;;;-3.20;99.90;-3.60;99803.00;;;;5035986;27;88243;-64
2021/12/27 03:35:35;;;;;;;15.30;8.33;;;-3.10;99.90;-3.50;99787.00;;;;5035026;27;87984;-65
2021/12/27 03:38:03;;;;;;;17.10;9.13;;;-3.10;99.90;-3.50;99781.00;;;;5035870;27;87745;-66
2021/12/27 03:40:29;;;;;;;10.40;7.67;;;-3.10;99.90;-3.50;99789.00;;;;5045447;27;97333;-66
2021/12/27 03:42:56;;;;;;;13.50;8.77;;;-3.00;99.90;-3.50;99779.00;;;;5055240;27;93326;-66
2021/12/27 03:45:34;;;;;;;18.33;9.03;;;-3.00;99.90;-3.40;99785.00;;;;5056530;27;88860;-65
2021/12/27 03:48:00;;;;;;;15.40;8.20;;;-3.10;99.90;-3.40;99775.00;;;;5048815;27;87597;-65
2021/12/27 03:50:26;;;;;;;13.27;7.37;;;-2.30;99.90;-3.40;99775.00;;;;5036746;27;87944;-66
2021/12/27 03:52:54;;;;;;;15.57;8.30;;;-3.00;99.90;-3.40;99775.00;;;;5033967;27;87718;-65
2021/12/27 03:55:21;;;;;;;17.77;8.10;;;-2.90;99.90;-3.30;99781.00;;;;5016768;27;90384;-65
2021/12/27 03:57:55;;;;;;;14.43;8.00;;;-3.00;99.90;-3.30;99777.00;;;;5036101;27;87924;-65
2021/12/27 04:00:32;;;;;;;14.57;7.43;;;-2.90;99.90;-3.30;99762.00;;;;5036846;27;87181;-65
2021/12/27 04:03:01;;;;;;;17.30;8.07;;;-2.90;99.90;-3.30;99760.00;;;;5035490;27;87771;-65
2021/12/27 04:05:28;;;;;;;13.93;8.27;;;-2.80;99.90;-3.20;99766.00;;;;5035656;27;88738;-65
2021/12/27 04:08:01;;;;;;;14.80;8.37;;;-2.80;99.90;-3.20;99777.00;;;;5040320;27;91832;-65
2021/12/27 04:10:29;;;;;;;11.77;7.60;;;-1.90;99.90;-3.20;99766.00;;;;5055561;27;88241;-67
2021/12/27 04:12:56;;;;;;;16.67;7.63;;;-2.70;99.90;-3.10;99759.00;;;;5054968;27;87941;-66
2021/12/27 04:15:22;;;;;;;15.23;7.63;;;-2.30;99.90;-3.10;99761.00;;;;5037303;27;88029;-64
2021/12/27 04:17:48;;;;;;;18.07;9.03;;;-2.70;99.90;-3.10;99758.00;;;;5056729;27;88120;-65
2021/12/27 04:20:14;;;;;;;12.70;7.93;;;-2.60;99.90;-3.10;99758.00;;;;5055532;27;87890;-64
2021/12/27 04:22:39;;;;;;;19.30;7.63;;;-2.70;99.90;-3.10;99755.00;;;;5054376;27;117314;-65
2021/12/27 04:25:06;;;;;;;14.57;7.13;;;-2.70;99.90;-3.00;99763.00;;;;5055011;27;116359;-67
2021/12/27 04:27:31;;;;;;;14.17;8.10;;;-2.70;99.90;-3.00;99763.00;;;;5055906;27;87945;-65
2021/12/27 04:29:57;;;;;;;13.27;7.63;;;-2.60;99.90;-3.00;99764.00;;;;5054295;27;109553;-65
2021/12/27 04:32:23;;;;;;;17.47;8.10;;;-2.10;99.90;-3.00;99768.00;;;;5054281;27;118345;-65
2021/12/27 04:34:48;;;;;;;16.53;7.43;;;-2.60;99.90;-3.00;99752.00;;;;5053869;27;119631;-64
2021/12/27 04:37:14;;;;;;;11.13;8.17;;;-2.60;99.90;-2.90;99763.00;;;;5038747;27;87699;-66
2021/12/27 04:39:40;;;;;;;12.17;6.97;;;-2.60;99.90;-2.90;99748.00;;;;5034277;27;109980;-65
2021/12/27 04:42:07;;;;;;;11.53;7.23;;;-2.50;99.90;-2.90;99757.00;;;;5037812;27;101675;-66
2021/12/27 04:44:33;;;;;;;13.83;7.60;;;-2.50;99.90;-2.90;99751.00;;;;5039884;27;88109;-65
2021/12/27 04:46:59;;;;;;;10.63;6.80;;;-2.50;99.90;-2.80;99759.00;;;;5038002;27;110609;-65
2021/12/27 04:49:25;;;;;;;14.67;7.23;;;-2.20;99.90;-2.80;99758.00;;;;5041565;27;98178;-65
2021/12/27 04:51:51;;;;;;;7.27;6.07;;;-2.20;99.90;-2.80;99757.00;;;;5039691;27;88976;-65
2021/12/27 04:54:16;;;;;;;14.93;7.60;;;-2.40;99.90;-2.80;99751.00;;;;5037348;27;117738;-65
2021/12/27 04:56:42;;;;;;;16.07;8.07;;;-2.30;99.90;-2.80;99752.00;;;;5038519;27;88828;-66
2021/12/27 04:59:08;;;;;;;13.90;7.53;;;-2.30;99.90;-2.80;99745.00;;;;5019045;27;87829;-65
2021/12/27 05:01:33;;;;;;;12.50;6.90;;;-2.30;99.90;-2.70;99746.00;;;;5037406;27;116514;-66
2021/12/27 05:03:59;;;;;;;14.90;7.30;;;-2.40;99.90;-2.70;99759.00;;;;5043164;27;99684;-65
2021/12/27 05:06:27;;;;;;;16.10;9.13;;;-2.30;99.90;-2.70;99749.00;;;;5057900;27;109973;-66
2021/12/27 05:08:53;;;;;;;13.00;6.80;;;-2.30;99.90;-2.70;99753.00;;;;5059064;27;87585;-65
2021/12/27 05:11:22;;;;;;;14.73;6.73;;;-2.50;99.90;-2.60;99754.00;;;;5056998;27;88792;-66
2021/12/27 05:13:48;;;;;;;16.87;7.90;;;-2.20;99.90;-2.60;99746.00;;;;5059042;27;87917;-65
2021/12/27 05:16:14;;;;;;;11.07;7.03;;;-2.20;99.90;-2.60;99746.00;;;;5042464;27;98838;-65
2021/12/27 05:18:39;;;;;;;20.57;7.77;;;-2.10;99.90;-2.60;99748.00;;;;5037606;27;108838;-66
2021/12/27 05:21:05;;;;;;;13.73;7.53;;;-2.10;99.90;-2.50;99744.00;;;;5028492;27;119110;-65
2021/12/27 05:23:31;;;;;;;14.20;6.90;;;-2.10;99.90;-2.50;99746.00;;;;5036749;27;118522;-65
2021/12/27 05:25:57;;;;;;;15.07;7.60;;;-2.20;99.90;-2.50;99746.00;;;;5036744;27;87781;-65
2021/12/27 05:28:23;;;;;;;11.40;7.57;;;-2.10;99.90;-2.50;99742.00;;;;5030557;27;108200;-65
2021/12/27 05:30:51;;;;;;;13.03;7.17;;;-2.10;99.90;-2.50;99739.00;;;;5037007;27;117629;-65
2021/12/27 05:33:19;;;;;;;13.43;7.43;;;-2.10;99.90;-2.40;99738.00;;;;5053515;27;87917;-66
2021/12/27 05:35:46;;;;;;;11.00;7.47;;;-2.10;99.90;-2.40;99749.00;;;;5056692;27;87669;-64
2021/12/27 05:38:13;;;;;;;16.90;8.07;;;-2.10;99.90;-2.40;99748.00;;;;5050250;27;86898;-66
2021/12/27 05:40:39;;;;;;;10.93;7.20;;;-2.00;99.90;-2.40;99748.00;;;;5058912;27;88299;-66
2021/12/27 05:43:06;;;;;;;16.77;7.70;;;-1.90;99.90;-2.30;99747.00;;;;5055718;27;110600;-65
2021/12/27 05:45:34;;;;;;;12.77;7.47;;;-2.00;99.90;-2.30;99739.00;;;;5038041;27;88734;-66
2021/12/27 05:48:00;;;;;;;9.97;7.23;;;-2.00;99.90;-2.30;99745.00;;;;5029745;27;87837;-65
2021/12/27 05:50:26;;;;;;;8.40;6.83;;;-1.80;99.90;-2.30;99739.00;;;;5037795;27;88899;-66
2021/12/27 05:52:53;;;;;;;15.47;8.37;;;-1.30;99.90;-2.30;99744.00;;;;5037107;27;97045;-65
2021/12/27 05:55:19;;;;;;;16.17;6.57;;;-1.90;99.90;-2.30;99741.00;;;;5038082;27;87691;-64
2021/12/27 05:57:45;;;;;;;11.47;6.97;;;-1.10;99.90;-2.30;99734.00;;;;5035167;27;87877;-66
2021/12/27 06:00:13;;;;;;;11.43;6.60;;;-1.90;99.90;-2.30;99740.00;;;;5056545;27;87939;-65
2021/12/27 06:02:39;;;;;;;10.07;6.87;;;-1.90;99.90;-2.30;99743.00;;;;5057629;27;88443;-66
2021/12/27 06:05:06;;;;;;;11.43;6.80;;;-1.90;99.90;-2.30;99735.00;;;;5057738;27;98087;-65
2021/12/27 06:07:31;;;;;;;15.00;6.87;;;-1.90;99.90;-2.30;99740.00;;;;5049194;27;93986;-65
2021/12/27 06:09:57;;;;;;;13.13;5.97;;;-1.90;99.90;-2.30;99735.00;;;;5055460;27;117120;-65
2021/12/27 06:12:24;;;;;;;12.73;6.27;;;-1.90;99.90;-2.20;99731.00;;;;5056524;27;109188;-65
2021/12/27 06:14:50;;;;;;;10.70;7.23;;;-1.90;99.90;-2.20;99728.00;;;;5035134;27;89821;-65
2021/12/27 06:17:15;;;;;;;12.70;7.40;;;-1.90;99.90;-2.20;99722.00;;;;5028938;27;88151;-65
2021/12/27 06:19:41;;;;;;;14.23;7.87;;;-1.80;99.90;-2.20;99736.00;;;;5049386;27;118002;-64
2021/12/27 06:22:08;;;;;;;15.83;7.50;;;-2.00;99.90;-2.20;99733.00;;;;5035821;27;117473;-64
2021/12/27 06:24:34;;;;;;;15.27;7.93;;;-1.80;99.90;-2.20;99735.00;;;;5018254;27;87639;-64
2021/12/27 06:27:00;;;;;;;11.20;7.10;;;-1.80;99.90;-2.20;99747.00;;;;5029547;27;109481;-64
2021/12/27 06:29:25;;;;;;;14.00;6.53;;;-1.70;99.90;-2.10;99752.00;;;;5055279;27;117361;-65
2021/12/27 06:31:51;;;;;;;11.87;7.23;;;-1.80;99.90;-2.10;99747.00;;;;5051466;27;95594;-65
2021/12/27 06:34:17;;;;;;;9.80;6.60;;;-1.80;99.90;-2.10;99751.00;;;;5039862;27;107304;-65
2021/12/27 06:36:43;;;;;;;10.23;7.07;;;-1.70;99.90;-2.10;99747.00;;;;5029781;27;88077;-65
2021/12/27 06:39:08;;;;;;;14.33;7.67;;;-1.70;99.90;-2.10;99740.00;;;;5035464;27;118028;-65
2021/12/27 06:41:35;;;;;;;13.97;7.17;;;-1.50;99.90;-2.00;99745.00;;;;5037051;27;117687;-65
2021/12/27 06:44:01;;;;;;;10.23;5.73;;;-1.70;99.90;-2.00;99741.00;;;;5036433;27;96794;-65
2021/12/27 06:46:27;;;;;;;15.57;7.10;;;-1.60;99.90;-2.00;99743.00;;;;5048813;27;92666;-65
2021/12/27 06:48:53;;;;;;;13.57;6.87;;;-1.60;99.90;-2.00;99740.00;;;;5054064;27;89009;-65
2021/12/27 06:51:19;;;;;;;10.60;6.73;;;-1.50;99.90;-1.90;99744.00;;;;5056851;27;87759;-65
2021/12/27 06:53:45;;;;;;;14.83;7.97;;;-1.60;99.90;-1.90;99754.00;;;;5037358;27;87793;-64
2021/12/27 06:56:11;;;;;;;11.97;8.57;;;-1.10;99.90;-1.90;99758.00;;;;5050006;27;88624;-65
2021/12/27 06:58:37;;;;;;;12.47;6.77;;;-1.50;99.90;-1.90;99748.00;;;;5048489;27;89017;-66
2021/12/27 07:01:04;;;;;;;11.63;7.57;;;-1.50;99.90;-1.90;99735.00;;;;5052528;27;118683;-64
2021/12/27 07:03:30;;;;;;;15.07;7.30;;;-1.60;99.90;-1.90;99742.00;;;;5052763;27;87966;-64
2021/12/27 07:05:56;;;;;;;16.23;8.17;;;-1.60;99.90;-1.90;99737.00;;;;5051429;27;87786;-65
2021/12/27 07:08:22;;;;;;;14.57;7.83;;;-1.60;99.90;-1.90;99739.00;;;;5045984;27;87936;-65
2021/12/27 07:10:49;;;;;;;10.77;7.40;;;-1.50;99.90;-1.90;99739.00;;;;5053747;27;88994;-65
2021/12/27 07:13:15;;;;;;;13.17;7.83;;;-1.50;99.90;-1.90;99745.00;;;;5053333;27;87988;-65
2021/12/27 07:15:42;;;;;;;13.63;7.17;;;-1.50;99.90;-1.90;99743.00;;;;5051133;27;87122;-65
2021/12/27 07:18:13;;;;;;;13.43;7.13;;;-1.60;99.90;-1.90;99742.00;;;;5044728;27;88783;-65
2021/12/27 07:20:39;;;;;;;12.60;7.33;;;-1.60;99.90;-1.90;99737.00;;;;5053199;27;87799;-65
2021/12/27 07:23:07;;;;;;;12.20;7.60;;;-1.50;99.90;-1.90;99739.00;;;;5052278;27;88893;-65
2021/12/27 07:25:33;;;;;;;12.10;7.43;;;-1.50;99.90;-1.80;99752.00;;;;5053069;27;94150;-65
2021/12/27 07:28:00;;;;;;;12.73;8.23;;;-1.50;99.90;-1.80;99753.00;;;;5036646;27;90109;-65
2021/12/27 07:30:28;;;;;;;10.33;7.83;;;-1.50;99.90;-1.80;99753.00;;;;5049402;27;101857;-65
2021/12/27 07:32:55;;;;;;;10.47;6.70;;;-1.40;99.90;-1.80;99744.00;;;;5046062;27;88233;-65
2021/12/27 07:35:22;;;;;;;14.37;7.93;;;-1.40;99.90;-1.80;99739.00;;;;5049373;27;87770;-65
2021/12/27 07:37:47;;;;;;;14.17;8.10;;;-1.40;99.90;-1.80;99738.00;;;;5044135;27;88513;-66
2021/12/27 07:40:14;;;;;;;11.57;6.40;;;-1.40;99.90;-1.80;99733.00;;;;5050056;27;118154;-65
2021/12/27 07:42:41;;;;;;;12.33;7.47;;;-1.50;99.90;-1.80;99726.00;;;;5045784;27;111653;-65
2021/12/27 07:45:08;;;;;;;12.97;6.80;;;-1.40;99.90;-1.80;99730.00;;;;5044488;27;87994;-65
2021/12/27 07:47:34;;;;;;;10.43;5.77;;;-1.40;99.90;-1.70;99725.00;;;;5043823;27;89545;-66
2021/12/27 07:49:59;;;;;;;11.73;7.30;;;-1.40;99.90;-1.70;99724.00;;;;5049894;27;88933;-64
2021/12/27 07:52:25;;;;;;;12.07;6.10;;;-1.40;99.90;-1.60;99725.00;;;;5051620;27;110184;-64
2021/12/27 07:54:51;;;;;;;10.23;6.30;;;-1.30;99.90;-1.60;99727.00;;;;5050537;27;103725;-64
2021/12/27 07:57:17;;;;;;;15.10;10.87;;;-1.20;99.90;-1.60;99722.00;;;;5039244;27;117545;-65
2021/12/27 07:59:47;;;;;;;22.00;11.63;;;-1.30;99.90;-1.50;99722.00;;;;5031269;27;93726;-64
2021/12/27 08:02:14;;;;;;;14.00;9.73;;;-1.20;99.90;-1.50;99714.00;;;;5051908;27;87666;-65
2021/12/27 08:04:40;;;;;;;12.97;9.30;;;-1.10;99.90;-1.40;99720.00;;;;5053385;27;86972;-64
2021/12/27 08:07:06;;;;;;;14.90;8.43;;;-1.00;99.90;-1.40;99717.00;;;;5044662;27;89175;-64
2021/12/27 08:09:32;;;;;;;12.87;7.20;;;-1.10;99.90;-1.30;99728.00;;;;5052056;27;88769;-64
2021/12/27 08:11:58;;;;;;;8.77;6.20;;;-1.00;99.90;-1.30;99720.00;;;;5039329;27;88761;-64
2021/12/27 08:14:24;;;;;;;12.63;7.90;;;0.20;99.90;-1.20;99715.00;;;;5038545;27;91333;-65
2021/12/27 08:16:50;;;;;;;19.63;14.37;;;-1.00;99.90;-1.20;99718.00;;;;5048573;27;87843;-64
2021/12/27 08:19:15;;;;;;;18.13;10.43;;;-1.00;99.90;-1.10;99720.00;;;;5056019;27;88184;-64
2021/12/27 08:21:41;;;;;;;10.87;7.90;;;-0.80;99.90;-1.10;99725.00;;;;5040756;27;113488;-64
2021/12/27 08:24:08;;;;;;;11.37;7.97;;;-0.80;99.90;-1.00;99717.00;;;;5043414;27;87923;-64
2021/12/27 08:26:34;;;;;;;15.37;7.80;;;-0.80;99.90;-1.00;99711.00;;;;5050243;27;88278;-65
2021/12/27 08:29:03;;;;;;;13.60;7.73;;;-0.70;99.90;-0.90;99717.00;;;;5053779;27;117802;-65
2021/12/27 08:31:29;;;;;;;8.47;7.43;;;-0.50;99.90;-0.90;99710.00;;;;5041466;27;93692;-64
2021/12/27 08:33:55;;;;;;;15.53;7.70;;;0.60;99.90;-0.80;99717.00;;;;5053871;27;109778;-65
2021/12/27 08:36:21;;;;;;;14.87;8.10;;;-0.50;99.90;-0.80;99713.00;;;;5039574;27;118860;-65
2021/12/27 08:38:48;;;;;;;11.63;7.57;;;-0.60;99.90;-0.70;99709.00;;;;5047849;27;89495;-64
2021/12/27 08:41:15;;;;;;;12.23;7.70;;;0.50;99.90;-0.70;99722.00;;;;5038361;27;87541;-64
2021/12/27 08:43:42;;;;;;;15.57;8.07;;;-0.50;99.90;-0.70;99717.00;;;;5056132;27;87747;-65
2021/12/27 08:46:08;;;;;;;10.37;7.13;;;-0.40;99.90;-0.70;99715.00;;;;5022532;27;87933;-65
2021/12/27 08:48:35;;;;;;;11.17;6.73;;;-0.40;99.90;-0.70;99721.00;;;;5029906;27;116035;-64
2021/12/27 08:51:01;;;;;;;12.07;7.60;;;-0.40;99.90;-0.60;99712.00;;;;5052775;27;87954;-65
2021/12/27 08:53:27;;;;;;;12.17;6.77;;;-0.30;99.90;-0.60;99703.00;;;;5052344;27;87351;-64
2021/12/27 08:55:54;;;;;;;11.37;6.43;;;-0.40;99.90;-0.60;99707.00;;;;5048167;27;99194;-65
2021/12/27 08:58:19;;;;;;;12.90;7.03;;;-0.30;99.90;-0.50;99721.00;;;;5047481;27;102767;-64
2021/12/27 09:00:45;;;;;;;10.63;6.43;;;-0.20;99.90;-0.40;99718.00;;;;5046742;27;90493;-64
2021/12/27 09:03:13;;;;;;;13.17;8.40;;;0.50;99.90;-0.40;99715.00;;;;5041977;27;90513;-64
2021/12/27 09:05:41;;;;;;;11.17;7.07;;;-0.10;99.90;-0.40;99712.00;;;;5043450;27;89553;-65
2021/12/27 09:08:08;;;;;;;12.50;7.10;;;-0.10;99.90;-0.30;99717.00;;;;5047010;27;88026;-67
2021/12/27 09:10:34;;;;;;;11.80;7.97;;;0.00;99.90;-0.30;99712.00;;;;5048367;27;87760;-65
2021/12/27 09:13:03;;;;;;;12.20;6.63;;;0.00;99.90;-0.20;99714.00;;;;5047020;27;87930;-65
2021/12/27 09:15:30;;;;;;;11.07;7.50;;;0.70;99.90;-0.20;99725.00;;;;5041646;27;89074;-64
2021/12/27 09:17:56;;;;;;;11.03;6.83;;;0.20;99.90;-0.20;99717.00;;;;5032788;27;102173;-65
2021/12/27 09:20:25;;;;;;;13.03;8.33;;;0.10;99.90;-0.10;99712.00;;;;5048875;27;90244;-64
2021/12/27 09:22:51;;;;;;;17.47;6.97;;;0.20;99.90;-0.10;99706.00;;;;5038249;27;88308;-64
2021/12/27 09:25:17;;;;;;;11.10;7.43;;;0.20;99.90;0.00;99704.00;;;;5037455;27;88690;-64
2021/12/27 09:27:42;;;;;;;12.57;7.23;;;0.30;99.90;0.00;99700.00;;;;5025179;27;121245;-64
2021/12/27 09:30:10;;;;;;;14.83;9.03;;;0.30;99.90;0.10;99699.00;;;;5045154;27;109161;-65
2021/12/27 09:32:35;;;;;;;22.47;12.80;;;0.40;99.90;0.10;99697.00;;;;5055025;27;89876;-65
2021/12/27 09:35:01;;;;;;;16.77;9.57;;;0.50;99.90;0.20;99691.00;;;;5034897;27;118837;-65
2021/12/27 09:37:27;;;;;;;16.70;9.07;;;1.30;99.90;0.30;99699.00;;;;5029172;27;87911;-65
2021/12/27 09:39:53;;;;;;;12.13;7.80;;;1.00;99.90;0.30;99689.00;;;;5034860;27;99867;-65
2021/12/27 09:42:25;;;;;;;10.10;5.93;;;1.50;99.90;0.40;99695.00;;;;5019968;27;87091;-65
2021/12/27 09:44:53;;;;;;;13.77;6.67;;;0.70;99.90;0.50;99682.00;;;;5038299;27;88238;-65
2021/12/27 09:47:20;;;;;;;14.13;5.07;;;0.80;99.90;0.50;99681.00;;;;5014942;27;87883;-66
2021/12/27 09:49:47;;;;;;;10.90;5.50;;;0.80;99.90;0.50;99666.00;;;;5048012;27;88871;-65
2021/12/27 09:52:14;;;;;;;8.97;5.37;;;1.70;99.90;0.60;99674.00;;;;5044406;27;88076;-64
2021/12/27 09:54:40;;;;;;;12.10;6.97;;;0.80;99.90;0.60;99675.00;;;;5033374;27;118240;-65
2021/12/27 09:57:07;;;;;;;7.80;4.07;;;0.90;99.90;0.70;99670.00;;;;4989730;27;88172;-65
2021/12/27 09:59:33;;;;;;;15.07;8.60;;;1.00;99.90;0.80;99659.00;;;;5050735;27;87725;-64
2021/12/27 10:01:59;;;;;;;8.43;4.93;;;1.00;99.90;0.80;99664.00;;;;5055186;27;87853;-66
2021/12/27 10:04:25;;;;;;;6.17;3.30;;;1.00;99.90;0.90;99663.00;;;;5053675;27;87871;-65
2021/12/27 10:06:52;;;;;;;5.27;3.80;;;2.00;99.90;1.00;99670.00;;;;5033143;27;116693;-65
2021/12/27 10:09:17;;;;;;;4.67;3.43;;;2.20;99.90;1.10;99659.00;;;;5018132;27;88307;-65
2021/12/27 10:11:44;;;;;;;5.63;3.27;;;1.60;99.90;1.20;99660.00;;;;5033329;27;87841;-65
2021/12/27 10:14:19;;;;;;;3.53;2.90;;;2.20;99.90;1.30;99650.00;;;;5052507;27;89982;-65
2021/12/27 10:17:04;;;;;;;5.13;2.90;;;1.80;99.90;1.40;99649.00;;;;5043664;27;87943;-66
2021/12/27 10:19:33;;;;;;;4.40;3.87;;;1.60;99.90;1.40;99644.00;;;;5048482;27;88003;-65
2021/12/27 10:21:58;;;;;;;7.23;3.50;;;2.30;99.90;1.50;99644.00;;;;5053285;27;88026;-65
2021/12/27 10:24:27;;;;;;;6.80;3.80;;;1.70;99.90;1.50;99647.00;;;;5046074;27;117094;-65
2021/12/27 10:26:55;;;;;;;3.87;3.00;;;1.70;99.90;1.60;99628.00;;;;5042577;27;88359;-65
2021/12/27 10:29:30;;;;;;;3.77;3.00;;;1.90;99.90;1.50;99628.00;;;;5050050;27;87812;-66
2021/12/27 10:32:14;;;;;;;7.47;2.83;;;1.90;99.90;1.60;99619.00;;;;5031706;27;87164;-65
2021/12/27 10:34:51;;;;;;;8.63;3.13;;;1.90;99.90;1.60;99625.00;;;;5048827;27;88034;-66
2021/12/27 10:37:30;;;;;;;6.67;3.77;;;1.80;99.90;1.60;99622.00;;;;5042696;27;87879;-65
2021/12/27 10:40:03;;;;;;;6.10;3.53;;;1.90;99.90;1.70;99621.00;;;;5049816;27;89852;-66
2021/12/27 10:42:48;;;;;;;6.30;3.17;;;2.00;99.90;1.70;99626.00;;;;5054678;27;88091;-66
2021/12/27 10:45:21;;;;;;;5.43;2.90;;;2.10;99.90;1.70;99626.00;;;;5048424;27;88523;-65
2021/12/27 10:47:53;;;;;;;4.67;3.17;;;1.90;99.90;1.70;99611.00;;;;5031588;27;89952;-66